sensor_id;sensor_type;location;lat;lon;timestamp;P1;durP1;ratioP1;P2;durP2;ratioP2
43527;SDS011;52359;42.658;23.320;2023-05-08T00:00:22;11.82;;;6.28;;
43527;SDS011;52359;42.658;23.320;2023-05-08T00:02:48;11.25;;;6.90;;
43527;SDS011;52359;42.658;23.320;2023-05-08T00:05:14;15.40;;;7.07;;
43527;SDS011;52359;42.658;23.320;2023-05-08T00:07:40;14.02;;;7.60;;
43527;SDS011;52359;42.658;23.320;2023-05-08T00:10:07;14.32;;;6.40;;
43527;SDS011;52359;42.658;23.320;2023-05-08T00:12:34;8.85;;;6.00;;
43527;SDS011;52359;42.658;23.320;2023-05-08T00:15:00;13.02;;;6.75;;
43527;SDS011;52359;42.658;23.320;2023-05-08T00:17:26;13.38;;;6.82;;
43527;SDS011;52359;42.658;23.320;2023-05-08T00:19:53;10.57;;;6.78;;
43527;SDS011;52359;42.658;23.320;2023-05-08T00:22:19;15.18;;;6.78;;
43527;SDS011;52359;42.658;23.320;2023-05-08T00:24:45;14.50;;;6.60;;
43527;SDS011;52359;42.658;23.320;2023-05-08T00:27:11;13.82;;;7.03;;
43527;SDS011;52359;42.658;23.320;2023-05-08T00:29:37;11.93;;;6.75;;
43527;SDS011;52359;42.658;23.320;2023-05-08T00:32:07;15.20;;;6.40;;
43527;SDS011;52359;42.658;23.320;2023-05-08T00:34:33;9.05;;;5.93;;
43527;SDS011;52359;42.658;23.320;2023-05-08T00:36:59;13.23;;;6.25;;
43527;SDS011;52359;42.658;23.320;2023-05-08T00:39:25;13.63;;;6.28;;
43527;SDS011;52359;42.658;23.320;2023-05-08T00:41:51;9.98;;;5.45;;
43527;SDS011;52359;42.658;23.320;2023-05-08T00:44:17;9.02;;;6.80;;
43527;SDS011;52359;42.658;23.320;2023-05-08T00:46:43;10.30;;;6.38;;
43527;SDS011;52359;42.658;23.320;2023-05-08T00:49:09;15.10;;;6.50;;
43527;SDS011;52359;42.658;23.320;2023-05-08T00:51:38;12.57;;;6.38;;
43527;SDS011;52359;42.658;23.320;2023-05-08T00:54:05;15.77;;;6.68;;
43527;SDS011;52359;42.658;23.320;2023-05-08T00:56:31;10.93;;;6.88;;
43527;SDS011;52359;42.658;23.320;2023-05-08T00:58:58;9.13;;;6.00;;
43527;SDS011;52359;42.658;23.320;2023-05-08T01:01:25;8.32;;;5.95;;
43527;SDS011;52359;42.658;23.320;2023-05-08T01:03:51;9.07;;;6.20;;
43527;SDS011;52359;42.658;23.320;2023-05-08T01:06:17;11.15;;;6.05;;
43527;SDS011;52359;42.658;23.320;2023-05-08T01:08:43;11.38;;;6.72;;
43527;SDS011;52359;42.658;23.320;2023-05-08T01:11:23;7.60;;;5.32;;
43527;SDS011;52359;42.658;23.320;2023-05-08T01:24:08;8.38;;;6.38;;
43527;SDS011;52359;42.658;23.320;2023-05-08T01:26:56;12.30;;;6.57;;
43527;SDS011;52359;42.658;23.320;2023-05-08T01:34:31;10.10;;;6.37;;
43527;SDS011;52359;42.658;23.320;2023-05-08T01:37:07;11.18;;;6.25;;
43527;SDS011;52359;42.658;23.320;2023-05-08T01:42:51;7.93;;;6.20;;
43527;SDS011;52359;42.658;23.320;2023-05-08T01:45:20;30.90;;;6.82;;
43527;SDS011;52359;42.658;23.320;2023-05-08T01:47:49;8.10;;;6.07;;
43527;SDS011;52359;42.658;23.320;2023-05-08T01:50:18;8.95;;;5.85;;
43527;SDS011;52359;42.658;23.320;2023-05-08T01:52:47;10.18;;;6.22;;
43527;SDS011;52359;42.658;23.320;2023-05-08T01:55:23;8.93;;;6.28;;
43527;SDS011;52359;42.658;23.320;2023-05-08T01:57:52;8.90;;;6.00;;
43527;SDS011;52359;42.658;23.320;2023-05-08T02:00:20;8.63;;;6.20;;
43527;SDS011;52359;42.658;23.320;2023-05-08T02:02:47;8.05;;;6.20;;
43527;SDS011;52359;42.658;23.320;2023-05-08T02:05:14;9.57;;;6.63;;
43527;SDS011;52359;42.658;23.320;2023-05-08T02:07:41;9.63;;;6.60;;
43527;SDS011;52359;42.658;23.320;2023-05-08T02:10:08;8.48;;;6.50;;
43527;SDS011;52359;42.658;23.320;2023-05-08T02:12:35;16.77;;;6.57;;
43527;SDS011;52359;42.658;23.320;2023-05-08T02:15:02;14.52;;;6.32;;
43527;SDS011;52359;42.658;23.320;2023-05-08T02:17:28;12.93;;;6.40;;
43527;SDS011;52359;42.658;23.320;2023-05-08T02:19:55;13.70;;;7.03;;
43527;SDS011;52359;42.658;23.320;2023-05-08T02:22:23;14.90;;;6.93;;
43527;SDS011;52359;42.658;23.320;2023-05-08T02:24:50;9.82;;;5.82;;
43527;SDS011;52359;42.658;23.320;2023-05-08T02:27:19;10.85;;;6.78;;
43527;SDS011;52359;42.658;23.320;2023-05-08T02:29:46;7.80;;;6.22;;
43527;SDS011;52359;42.658;23.320;2023-05-08T02:32:13;10.93;;;6.30;;
43527;SDS011;52359;42.658;23.320;2023-05-08T02:34:40;12.73;;;5.97;;
43527;SDS011;52359;42.658;23.320;2023-05-08T02:37:07;10.98;;;6.97;;
43527;SDS011;52359;42.658;23.320;2023-05-08T02:39:34;21.77;;;6.68;;
43527;SDS011;52359;42.658;23.320;2023-05-08T02:42:00;17.67;;;6.93;;
43527;SDS011;52359;42.658;23.320;2023-05-08T02:44:26;10.40;;;6.30;;
43527;SDS011;52359;42.658;23.320;2023-05-08T02:46:56;15.48;;;6.60;;
43527;SDS011;52359;42.658;23.320;2023-05-08T02:49:26;12.43;;;7.07;;
43527;SDS011;52359;42.658;23.320;2023-05-08T02:51:53;7.75;;;5.95;;
43527;SDS011;52359;42.658;23.320;2023-05-08T02:54:41;7.50;;;5.95;;
43527;SDS011;52359;42.658;23.320;2023-05-08T02:59:59;17.27;;;7.10;;
43527;SDS011;52359;42.658;23.320;2023-05-08T03:02:31;9.32;;;6.25;;
43527;SDS011;52359;42.658;23.320;2023-05-08T03:04:58;9.18;;;7.22;;
43527;SDS011;52359;42.658;23.320;2023-05-08T03:07:27;9.65;;;6.50;;
43527;SDS011;52359;42.658;23.320;2023-05-08T03:09:55;12.02;;;6.75;;
43527;SDS011;52359;42.658;23.320;2023-05-08T03:12:22;11.38;;;5.93;;
43527;SDS011;52359;42.658;23.320;2023-05-08T03:15:10;10.60;;;6.22;;
43527;SDS011;52359;42.658;23.320;2023-05-08T03:17:37;8.88;;;6.22;;
43527;SDS011;52359;42.658;23.320;2023-05-08T03:20:04;12.40;;;6.85;;
43527;SDS011;52359;42.658;23.320;2023-05-08T03:22:31;14.90;;;6.75;;
43527;SDS011;52359;42.658;23.320;2023-05-08T03:24:59;12.98;;;6.75;;
43527;SDS011;52359;42.658;23.320;2023-05-08T03:27:27;18.08;;;7.88;;
43527;SDS011;52359;42.658;23.320;2023-05-08T03:29:54;12.95;;;7.22;;
43527;SDS011;52359;42.658;23.320;2023-05-08T03:32:22;16.75;;;7.35;;
43527;SDS011;52359;42.658;23.320;2023-05-08T03:34:49;18.02;;;7.57;;
43527;SDS011;52359;42.658;23.320;2023-05-08T03:37:16;13.82;;;7.53;;
43527;SDS011;52359;42.658;23.320;2023-05-08T03:39:42;14.73;;;7.22;;
43527;SDS011;52359;42.658;23.320;2023-05-08T03:42:08;17.48;;;6.15;;
43527;SDS011;52359;42.658;23.320;2023-05-08T03:44:34;15.15;;;5.78;;
43527;SDS011;52359;42.658;23.320;2023-05-08T03:47:02;14.43;;;6.53;;
43527;SDS011;52359;42.658;23.320;2023-05-08T03:49:28;10.00;;;6.50;;
43527;SDS011;52359;42.658;23.320;2023-05-08T03:51:54;14.23;;;6.57;;
43527;SDS011;52359;42.658;23.320;2023-05-08T03:54:21;11.48;;;6.68;;
43527;SDS011;52359;42.658;23.320;2023-05-08T03:56:52;13.57;;;6.78;;
43527;SDS011;52359;42.658;23.320;2023-05-08T04:01:57;8.93;;;6.03;;
43527;SDS011;52359;42.658;23.320;2023-05-08T04:04:40;13.43;;;7.13;;
43527;SDS011;52359;42.658;23.320;2023-05-08T04:12:21;7.95;;;6.07;;
43527;SDS011;52359;42.658;23.320;2023-05-08T04:14:48;11.50;;;5.80;;
43527;SDS011;52359;42.658;23.320;2023-05-08T04:17:16;13.75;;;6.50;;
43527;SDS011;52359;42.658;23.320;2023-05-08T04:19:46;10.00;;;5.18;;
43527;SDS011;52359;42.658;23.320;2023-05-08T04:22:14;11.77;;;5.03;;
43527;SDS011;52359;42.658;23.320;2023-05-08T04:24:42;13.55;;;5.70;;
43527;SDS011;52359;42.658;23.320;2023-05-08T04:27:09;10.95;;;4.82;;
43527;SDS011;52359;42.658;23.320;2023-05-08T04:29:35;11.90;;;4.45;;
43527;SDS011;52359;42.658;23.320;2023-05-08T04:32:02;8.15;;;4.68;;
43527;SDS011;52359;42.658;23.320;2023-05-08T04:34:29;15.25;;;4.85;;
43527;SDS011;52359;42.658;23.320;2023-05-08T04:36:56;8.50;;;4.85;;
43527;SDS011;52359;42.658;23.320;2023-05-08T04:39:22;6.72;;;4.80;;
43527;SDS011;52359;42.658;23.320;2023-05-08T04:41:48;9.00;;;4.50;;
43527;SDS011;52359;42.658;23.320;2023-05-08T04:44:16;11.02;;;5.18;;
43527;SDS011;52359;42.658;23.320;2023-05-08T04:46:42;11.55;;;4.88;;
43527;SDS011;52359;42.658;23.320;2023-05-08T04:49:08;7.97;;;4.60;;
43527;SDS011;52359;42.658;23.320;2023-05-08T04:51:34;14.90;;;4.85;;
43527;SDS011;52359;42.658;23.320;2023-05-08T04:54:00;9.57;;;4.30;;
43527;SDS011;52359;42.658;23.320;2023-05-08T04:56:26;6.15;;;4.78;;
43527;SDS011;52359;42.658;23.320;2023-05-08T04:58:52;21.30;;;5.38;;
43527;SDS011;52359;42.658;23.320;2023-05-08T05:01:18;9.57;;;5.57;;
43527;SDS011;52359;42.658;23.320;2023-05-08T05:03:44;9.40;;;5.20;;
43527;SDS011;52359;42.658;23.320;2023-05-08T05:06:10;13.07;;;4.13;;
43527;SDS011;52359;42.658;23.320;2023-05-08T05:08:36;8.63;;;4.15;;
43527;SDS011;52359;42.658;23.320;2023-05-08T05:11:02;9.90;;;5.32;;
43527;SDS011;52359;42.658;23.320;2023-05-08T05:13:28;8.90;;;5.00;;
43527;SDS011;52359;42.658;23.320;2023-05-08T05:15:54;11.07;;;5.00;;
43527;SDS011;52359;42.658;23.320;2023-05-08T05:18:20;13.20;;;5.15;;
43527;SDS011;52359;42.658;23.320;2023-05-08T05:20:46;20.38;;;5.22;;
43527;SDS011;52359;42.658;23.320;2023-05-08T05:23:12;6.15;;;4.43;;
43527;SDS011;52359;42.658;23.320;2023-05-08T05:25:38;21.27;;;5.07;;
43527;SDS011;52359;42.658;23.320;2023-05-08T05:28:04;17.75;;;5.15;;
43527;SDS011;52359;42.658;23.320;2023-05-08T05:30:31;9.07;;;5.07;;
43527;SDS011;52359;42.658;23.320;2023-05-08T05:32:57;18.73;;;5.07;;
43527;SDS011;52359;42.658;23.320;2023-05-08T05:35:23;12.68;;;5.40;;
43527;SDS011;52359;42.658;23.320;2023-05-08T05:37:49;9.73;;;5.30;;
43527;SDS011;52359;42.658;23.320;2023-05-08T05:40:15;8.55;;;4.43;;
43527;SDS011;52359;42.658;23.320;2023-05-08T05:42:41;6.13;;;4.35;;
43527;SDS011;52359;42.658;23.320;2023-05-08T05:45:08;12.07;;;4.78;;
43527;SDS011;52359;42.658;23.320;2023-05-08T05:47:34;10.60;;;4.68;;
43527;SDS011;52359;42.658;23.320;2023-05-08T05:50:00;6.70;;;4.05;;
43527;SDS011;52359;42.658;23.320;2023-05-08T05:52:26;6.20;;;3.97;;
43527;SDS011;52359;42.658;23.320;2023-05-08T05:54:52;6.55;;;4.82;;
43527;SDS011;52359;42.658;23.320;2023-05-08T05:57:18;11.90;;;4.60;;
43527;SDS011;52359;42.658;23.320;2023-05-08T05:59:44;11.25;;;5.05;;
43527;SDS011;52359;42.658;23.320;2023-05-08T06:02:10;5.80;;;4.45;;
43527;SDS011;52359;42.658;23.320;2023-05-08T06:04:42;8.95;;;4.38;;
43527;SDS011;52359;42.658;23.320;2023-05-08T06:07:08;10.50;;;4.30;;
43527;SDS011;52359;42.658;23.320;2023-05-08T06:09:34;9.52;;;4.85;;
43527;SDS011;52359;42.658;23.320;2023-05-08T06:12:00;7.78;;;4.82;;
43527;SDS011;52359;42.658;23.320;2023-05-08T06:14:26;10.90;;;5.05;;
43527;SDS011;52359;42.658;23.320;2023-05-08T06:16:52;13.48;;;5.38;;
43527;SDS011;52359;42.658;23.320;2023-05-08T06:19:18;11.52;;;5.15;;
43527;SDS011;52359;42.658;23.320;2023-05-08T06:21:44;12.30;;;5.03;;
43527;SDS011;52359;42.658;23.320;2023-05-08T06:24:10;10.57;;;4.75;;
43527;SDS011;52359;42.658;23.320;2023-05-08T06:26:36;10.65;;;4.28;;
43527;SDS011;52359;42.658;23.320;2023-05-08T06:29:02;6.45;;;4.10;;
43527;SDS011;52359;42.658;23.320;2023-05-08T06:31:28;9.05;;;4.90;;
43527;SDS011;52359;42.658;23.320;2023-05-08T06:33:54;20.27;;;4.93;;
43527;SDS011;52359;42.658;23.320;2023-05-08T06:36:20;12.38;;;4.15;;
43527;SDS011;52359;42.658;23.320;2023-05-08T06:38:46;12.00;;;4.47;;
43527;SDS011;52359;42.658;23.320;2023-05-08T06:41:12;11.07;;;4.20;;
43527;SDS011;52359;42.658;23.320;2023-05-08T06:43:38;13.88;;;4.07;;
43527;SDS011;52359;42.658;23.320;2023-05-08T06:46:04;9.20;;;4.40;;
43527;SDS011;52359;42.658;23.320;2023-05-08T06:48:30;17.15;;;4.40;;
43527;SDS011;52359;42.658;23.320;2023-05-08T06:50:57;16.80;;;4.63;;
43527;SDS011;52359;42.658;23.320;2023-05-08T06:53:23;25.63;;;7.72;;
43527;SDS011;52359;42.658;23.320;2023-05-08T06:55:50;18.42;;;5.28;;
43527;SDS011;52359;42.658;23.320;2023-05-08T06:58:16;11.98;;;4.90;;
43527;SDS011;52359;42.658;23.320;2023-05-08T07:00:42;13.02;;;5.65;;
43527;SDS011;52359;42.658;23.320;2023-05-08T07:03:08;15.05;;;5.82;;
43527;SDS011;52359;42.658;23.320;2023-05-08T07:05:34;9.38;;;5.70;;
43527;SDS011;52359;42.658;23.320;2023-05-08T07:08:00;19.50;;;7.72;;
43527;SDS011;52359;42.658;23.320;2023-05-08T07:10:26;17.50;;;5.50;;
43527;SDS011;52359;42.658;23.320;2023-05-08T07:12:52;11.35;;;4.85;;
43527;SDS011;52359;42.658;23.320;2023-05-08T07:15:18;30.20;;;6.53;;
43527;SDS011;52359;42.658;23.320;2023-05-08T07:17:44;13.48;;;4.82;;
43527;SDS011;52359;42.658;23.320;2023-05-08T07:20:10;14.85;;;5.30;;
43527;SDS011;52359;42.658;23.320;2023-05-08T07:22:36;8.27;;;5.38;;
43527;SDS011;52359;42.658;23.320;2023-05-08T07:25:02;32.67;;;10.80;;
43527;SDS011;52359;42.658;23.320;2023-05-08T07:27:28;16.45;;;6.35;;
43527;SDS011;52359;42.658;23.320;2023-05-08T07:29:55;22.13;;;6.05;;
43527;SDS011;52359;42.658;23.320;2023-05-08T07:32:22;16.10;;;5.97;;
43527;SDS011;52359;42.658;23.320;2023-05-08T07:34:48;11.95;;;6.20;;
43527;SDS011;52359;42.658;23.320;2023-05-08T07:37:14;9.98;;;6.55;;
43527;SDS011;52359;42.658;23.320;2023-05-08T07:39:40;12.82;;;6.60;;
43527;SDS011;52359;42.658;23.320;2023-05-08T07:42:06;15.95;;;6.57;;
43527;SDS011;52359;42.658;23.320;2023-05-08T07:44:32;19.88;;;6.97;;
43527;SDS011;52359;42.658;23.320;2023-05-08T07:46:59;11.60;;;6.85;;
43527;SDS011;52359;42.658;23.320;2023-05-08T07:49:25;11.40;;;6.40;;
43527;SDS011;52359;42.658;23.320;2023-05-08T07:51:51;17.27;;;6.85;;
43527;SDS011;52359;42.658;23.320;2023-05-08T07:54:17;10.63;;;6.55;;
43527;SDS011;52359;42.658;23.320;2023-05-08T07:56:43;15.82;;;6.45;;
43527;SDS011;52359;42.658;23.320;2023-05-08T07:59:09;7.00;;;5.40;;
43527;SDS011;52359;42.658;23.320;2023-05-08T08:01:35;9.50;;;6.57;;
43527;SDS011;52359;42.658;23.320;2023-05-08T08:04:01;10.02;;;5.47;;
43527;SDS011;52359;42.658;23.320;2023-05-08T08:06:27;12.40;;;5.32;;
43527;SDS011;52359;42.658;23.320;2023-05-08T08:08:53;16.77;;;5.10;;
43527;SDS011;52359;42.658;23.320;2023-05-08T08:11:19;14.13;;;5.30;;
43527;SDS011;52359;42.658;23.320;2023-05-08T08:13:45;12.35;;;5.93;;
43527;SDS011;52359;42.658;23.320;2023-05-08T08:16:11;9.95;;;4.95;;
43527;SDS011;52359;42.658;23.320;2023-05-08T08:18:37;12.18;;;5.25;;
43527;SDS011;52359;42.658;23.320;2023-05-08T08:21:04;14.13;;;5.63;;
43527;SDS011;52359;42.658;23.320;2023-05-08T08:23:30;7.57;;;4.97;;
43527;SDS011;52359;42.658;23.320;2023-05-08T08:25:57;11.13;;;5.43;;
43527;SDS011;52359;42.658;23.320;2023-05-08T08:28:23;12.52;;;5.38;;
43527;SDS011;52359;42.658;23.320;2023-05-08T08:30:49;10.60;;;4.78;;
43527;SDS011;52359;42.658;23.320;2023-05-08T08:33:15;11.80;;;5.25;;
43527;SDS011;52359;42.658;23.320;2023-05-08T08:35:59;8.07;;;4.88;;
43527;SDS011;52359;42.658;23.320;2023-05-08T08:38:26;13.63;;;3.92;;
43527;SDS011;52359;42.658;23.320;2023-05-08T08:40:52;8.85;;;4.25;;
43527;SDS011;52359;42.658;23.320;2023-05-08T08:43:18;8.48;;;4.50;;
43527;SDS011;52359;42.658;23.320;2023-05-08T08:45:44;8.48;;;4.30;;
43527;SDS011;52359;42.658;23.320;2023-05-08T08:48:10;11.63;;;4.90;;
43527;SDS011;52359;42.658;23.320;2023-05-08T08:50:39;10.35;;;4.80;;
43527;SDS011;52359;42.658;23.320;2023-05-08T08:53:10;10.10;;;4.32;;
43527;SDS011;52359;42.658;23.320;2023-05-08T08:55:42;11.35;;;4.97;;
43527;SDS011;52359;42.658;23.320;2023-05-08T08:58:17;14.52;;;5.07;;
43527;SDS011;52359;42.658;23.320;2023-05-08T09:00:47;12.75;;;4.53;;
43527;SDS011;52359;42.658;23.320;2023-05-08T09:03:14;9.70;;;4.32;;
43527;SDS011;52359;42.658;23.320;2023-05-08T09:05:40;8.38;;;4.15;;
43527;SDS011;52359;42.658;23.320;2023-05-08T09:08:08;7.78;;;4.43;;
43527;SDS011;52359;42.658;23.320;2023-05-08T09:10:35;11.98;;;5.20;;
43527;SDS011;52359;42.658;23.320;2023-05-08T09:13:02;8.98;;;5.05;;
43527;SDS011;52359;42.658;23.320;2023-05-08T09:15:29;9.93;;;4.80;;
43527;SDS011;52359;42.658;23.320;2023-05-08T09:17:56;13.18;;;5.95;;
43527;SDS011;52359;42.658;23.320;2023-05-08T09:20:22;11.30;;;5.20;;
43527;SDS011;52359;42.658;23.320;2023-05-08T09:22:48;18.08;;;5.35;;
43527;SDS011;52359;42.658;23.320;2023-05-08T09:25:14;8.85;;;4.82;;
43527;SDS011;52359;42.658;23.320;2023-05-08T09:27:42;11.35;;;4.72;;
43527;SDS011;52359;42.658;23.320;2023-05-08T09:30:08;14.00;;;4.78;;
43527;SDS011;52359;42.658;23.320;2023-05-08T09:32:36;9.18;;;4.95;;
43527;SDS011;52359;42.658;23.320;2023-05-08T09:35:03;12.35;;;4.22;;
43527;SDS011;52359;42.658;23.320;2023-05-08T09:37:29;6.18;;;4.43;;
43527;SDS011;52359;42.658;23.320;2023-05-08T09:40:12;10.30;;;4.10;;
43527;SDS011;52359;42.658;23.320;2023-05-08T09:42:38;11.00;;;5.18;;
43527;SDS011;52359;42.658;23.320;2023-05-08T09:45:04;14.40;;;4.88;;
43527;SDS011;52359;42.658;23.320;2023-05-08T09:47:31;10.90;;;4.30;;
43527;SDS011;52359;42.658;23.320;2023-05-08T09:49:57;6.50;;;4.55;;
43527;SDS011;52359;42.658;23.320;2023-05-08T09:52:24;9.63;;;4.93;;
43527;SDS011;52359;42.658;23.320;2023-05-08T09:54:57;9.70;;;4.13;;
43527;SDS011;52359;42.658;23.320;2023-05-08T09:57:23;11.82;;;5.50;;
43527;SDS011;52359;42.658;23.320;2023-05-08T09:59:50;9.25;;;4.55;;
43527;SDS011;52359;42.658;23.320;2023-05-08T10:02:16;8.50;;;4.80;;
43527;SDS011;52359;42.658;23.320;2023-05-08T10:04:44;8.43;;;4.53;;
43527;SDS011;52359;42.658;23.320;2023-05-08T10:07:10;7.53;;;4.25;;
43527;SDS011;52359;42.658;23.320;2023-05-08T10:09:36;10.95;;;4.72;;
43527;SDS011;52359;42.658;23.320;2023-05-08T10:12:02;10.07;;;4.57;;
43527;SDS011;52359;42.658;23.320;2023-05-08T10:14:28;10.48;;;4.70;;
43527;SDS011;52359;42.658;23.320;2023-05-08T10:16:54;7.13;;;4.45;;
43527;SDS011;52359;42.658;23.320;2023-05-08T10:19:22;7.78;;;4.38;;
43527;SDS011;52359;42.658;23.320;2023-05-08T10:21:50;5.35;;;3.70;;
43527;SDS011;52359;42.658;23.320;2023-05-08T10:26:43;9.32;;;5.07;;
43527;SDS011;52359;42.658;23.320;2023-05-08T10:29:16;6.93;;;4.40;;
43527;SDS011;52359;42.658;23.320;2023-05-08T10:31:43;8.32;;;4.95;;
43527;SDS011;52359;42.658;23.320;2023-05-08T10:34:17;8.32;;;4.30;;
43527;SDS011;52359;42.658;23.320;2023-05-08T10:36:47;14.32;;;5.28;;
43527;SDS011;52359;42.658;23.320;2023-05-08T10:39:17;8.95;;;4.63;;
43527;SDS011;52359;42.658;23.320;2023-05-08T10:41:43;8.73;;;5.18;;
43527;SDS011;52359;42.658;23.320;2023-05-08T10:44:09;6.63;;;4.70;;
43527;SDS011;52359;42.658;23.320;2023-05-08T10:51:34;8.10;;;4.80;;
43527;SDS011;52359;42.658;23.320;2023-05-08T10:54:05;4.28;;;3.88;;
43527;SDS011;52359;42.658;23.320;2023-05-08T10:56:34;6.43;;;4.10;;
43527;SDS011;52359;42.658;23.320;2023-05-08T10:59:02;12.00;;;4.28;;
43527;SDS011;52359;42.658;23.320;2023-05-08T11:01:28;7.50;;;4.25;;
43527;SDS011;52359;42.658;23.320;2023-05-08T11:03:54;12.27;;;5.18;;
43527;SDS011;52359;42.658;23.320;2023-05-08T11:06:40;17.45;;;4.90;;
43527;SDS011;52359;42.658;23.320;2023-05-08T11:09:07;8.52;;;4.53;;
43527;SDS011;52359;42.658;23.320;2023-05-08T11:11:35;13.10;;;4.70;;
43527;SDS011;52359;42.658;23.320;2023-05-08T11:24:33;5.97;;;4.40;;
43527;SDS011;52359;42.658;23.320;2023-05-08T11:27:02;7.53;;;4.03;;
43527;SDS011;52359;42.658;23.320;2023-05-08T11:29:28;8.77;;;4.28;;
43527;SDS011;52359;42.658;23.320;2023-05-08T11:31:54;5.20;;;4.20;;
43527;SDS011;52359;42.658;23.320;2023-05-08T11:37:08;11.13;;;4.18;;
43527;SDS011;52359;42.658;23.320;2023-05-08T11:39:35;6.22;;;4.70;;
43527;SDS011;52359;42.658;23.320;2023-05-08T11:45:07;5.50;;;4.07;;
43527;SDS011;52359;42.658;23.320;2023-05-08T11:47:37;6.47;;;4.10;;
43527;SDS011;52359;42.658;23.320;2023-05-08T11:50:05;8.18;;;4.90;;
43527;SDS011;52359;42.658;23.320;2023-05-08T11:52:35;12.95;;;4.13;;
43527;SDS011;52359;42.658;23.320;2023-05-08T11:55:02;15.00;;;4.07;;
43527;SDS011;52359;42.658;23.320;2023-05-08T11:57:29;4.93;;;3.70;;
43527;SDS011;52359;42.658;23.320;2023-05-08T11:59:56;8.57;;;3.80;;
43527;SDS011;52359;42.658;23.320;2023-05-08T12:02:38;5.65;;;3.63;;
43527;SDS011;52359;42.658;23.320;2023-05-08T12:05:05;8.20;;;3.65;;
43527;SDS011;52359;42.658;23.320;2023-05-08T12:07:31;7.72;;;3.78;;
43527;SDS011;52359;42.658;23.320;2023-05-08T12:09:59;8.23;;;3.85;;
43527;SDS011;52359;42.658;23.320;2023-05-08T12:12:34;4.93;;;3.10;;
43527;SDS011;52359;42.658;23.320;2023-05-08T12:15:00;3.33;;;3.00;;
43527;SDS011;52359;42.658;23.320;2023-05-08T12:17:30;3.40;;;3.10;;
43527;SDS011;52359;42.658;23.320;2023-05-08T12:19:56;6.75;;;2.78;;
43527;SDS011;52359;42.658;23.320;2023-05-08T12:22:27;6.60;;;3.80;;
43527;SDS011;52359;42.658;23.320;2023-05-08T12:24:53;4.10;;;3.10;;
43527;SDS011;52359;42.658;23.320;2023-05-08T12:27:20;3.67;;;3.25;;
43527;SDS011;52359;42.658;23.320;2023-05-08T12:29:46;9.30;;;3.35;;
43527;SDS011;52359;42.658;23.320;2023-05-08T12:32:12;10.57;;;3.40;;
43527;SDS011;52359;42.658;23.320;2023-05-08T12:34:38;3.20;;;2.88;;
43527;SDS011;52359;42.658;23.320;2023-05-08T12:37:04;3.65;;;3.35;;
43527;SDS011;52359;42.658;23.320;2023-05-08T12:39:34;9.43;;;2.90;;
43527;SDS011;52359;42.658;23.320;2023-05-08T12:42:01;7.95;;;3.47;;
43527;SDS011;52359;42.658;23.320;2023-05-08T12:44:27;5.68;;;3.13;;
43527;SDS011;52359;42.658;23.320;2023-05-08T12:46:55;5.07;;;2.90;;
43527;SDS011;52359;42.658;23.320;2023-05-08T12:49:25;3.97;;;3.58;;
43527;SDS011;52359;42.658;23.320;2023-05-08T12:51:59;3.78;;;3.22;;
43527;SDS011;52359;42.658;23.320;2023-05-08T12:54:38;3.42;;;3.13;;
43527;SDS011;52359;42.658;23.320;2023-05-08T12:57:23;3.95;;;3.20;;
43527;SDS011;52359;42.658;23.320;2023-05-08T12:59:49;6.38;;;3.22;;
43527;SDS011;52359;42.658;23.320;2023-05-08T13:02:17;4.68;;;3.42;;
43527;SDS011;52359;42.658;23.320;2023-05-08T13:04:45;5.65;;;3.00;;
43527;SDS011;52359;42.658;23.320;2023-05-08T13:07:11;3.00;;;2.80;;
43527;SDS011;52359;42.658;23.320;2023-05-08T13:09:38;8.40;;;3.70;;
43527;SDS011;52359;42.658;23.320;2023-05-08T13:12:04;4.90;;;3.45;;
43527;SDS011;52359;42.658;23.320;2023-05-08T13:14:30;7.53;;;3.08;;
43527;SDS011;52359;42.658;23.320;2023-05-08T13:16:56;8.43;;;3.75;;
43527;SDS011;52359;42.658;23.320;2023-05-08T13:19:23;9.13;;;3.58;;
43527;SDS011;52359;42.658;23.320;2023-05-08T13:21:51;7.40;;;4.10;;
43527;SDS011;52359;42.658;23.320;2023-05-08T13:24:17;16.02;;;4.15;;
43527;SDS011;52359;42.658;23.320;2023-05-08T13:26:43;9.50;;;3.50;;
43527;SDS011;52359;42.658;23.320;2023-05-08T13:29:10;5.18;;;3.08;;
43527;SDS011;52359;42.658;23.320;2023-05-08T13:31:36;6.30;;;3.72;;
43527;SDS011;52359;42.658;23.320;2023-05-08T13:34:02;11.48;;;3.83;;
43527;SDS011;52359;42.658;23.320;2023-05-08T13:36:28;8.98;;;3.65;;
43527;SDS011;52359;42.658;23.320;2023-05-08T13:38:54;8.15;;;3.58;;
43527;SDS011;52359;42.658;23.320;2023-05-08T13:41:21;4.43;;;3.60;;
43527;SDS011;52359;42.658;23.320;2023-05-08T13:43:47;7.93;;;3.50;;
43527;SDS011;52359;42.658;23.320;2023-05-08T13:46:13;4.50;;;2.92;;
43527;SDS011;52359;42.658;23.320;2023-05-08T13:48:39;5.40;;;4.18;;
43527;SDS011;52359;42.658;23.320;2023-05-08T13:51:05;6.00;;;3.88;;
43527;SDS011;52359;42.658;23.320;2023-05-08T13:53:31;12.18;;;4.40;;
43527;SDS011;52359;42.658;23.320;2023-05-08T13:55:57;6.10;;;4.35;;
43527;SDS011;52359;42.658;23.320;2023-05-08T13:58:23;9.77;;;3.78;;
43527;SDS011;52359;42.658;23.320;2023-05-08T14:00:49;6.90;;;3.75;;
43527;SDS011;52359;42.658;23.320;2023-05-08T14:03:15;3.90;;;3.38;;
43527;SDS011;52359;42.658;23.320;2023-05-08T14:05:41;6.35;;;4.20;;
43527;SDS011;52359;42.658;23.320;2023-05-08T14:08:07;8.40;;;3.85;;
43527;SDS011;52359;42.658;23.320;2023-05-08T14:10:35;6.75;;;3.70;;
43527;SDS011;52359;42.658;23.320;2023-05-08T14:13:01;8.35;;;4.47;;
43527;SDS011;52359;42.658;23.320;2023-05-08T14:15:27;13.95;;;3.85;;
43527;SDS011;52359;42.658;23.320;2023-05-08T14:17:53;5.07;;;3.90;;
43527;SDS011;52359;42.658;23.320;2023-05-08T14:20:19;12.52;;;4.18;;
43527;SDS011;52359;42.658;23.320;2023-05-08T14:22:45;7.55;;;4.07;;
43527;SDS011;52359;42.658;23.320;2023-05-08T14:25:11;7.30;;;3.67;;
43527;SDS011;52359;42.658;23.320;2023-05-08T14:27:37;7.18;;;4.38;;
43527;SDS011;52359;42.658;23.320;2023-05-08T14:30:03;11.98;;;4.07;;
43527;SDS011;52359;42.658;23.320;2023-05-08T14:32:29;9.15;;;4.70;;
43527;SDS011;52359;42.658;23.320;2023-05-08T14:34:55;6.25;;;4.35;;
43527;SDS011;52359;42.658;23.320;2023-05-08T14:37:21;4.13;;;3.45;;
43527;SDS011;52359;42.658;23.320;2023-05-08T14:39:47;5.40;;;3.80;;
43527;SDS011;52359;42.658;23.320;2023-05-08T14:42:16;7.30;;;3.38;;
43527;SDS011;52359;42.658;23.320;2023-05-08T14:44:42;6.78;;;4.00;;
43527;SDS011;52359;42.658;23.320;2023-05-08T14:47:08;5.63;;;3.15;;
43527;SDS011;52359;42.658;23.320;2023-05-08T14:49:34;4.15;;;2.95;;
43527;SDS011;52359;42.658;23.320;2023-05-08T14:52:00;6.47;;;2.70;;
43527;SDS011;52359;42.658;23.320;2023-05-08T14:54:26;4.35;;;2.50;;
43527;SDS011;52359;42.658;23.320;2023-05-08T14:56:52;6.15;;;3.10;;
43527;SDS011;52359;42.658;23.320;2023-05-08T14:59:18;8.00;;;3.90;;
43527;SDS011;52359;42.658;23.320;2023-05-08T15:01:45;7.22;;;2.63;;
43527;SDS011;52359;42.658;23.320;2023-05-08T15:04:11;2.63;;;2.40;;
43527;SDS011;52359;42.658;23.320;2023-05-08T15:06:37;4.95;;;2.58;;
43527;SDS011;52359;42.658;23.320;2023-05-08T15:09:04;4.68;;;2.88;;
43527;SDS011;52359;42.658;23.320;2023-05-08T15:11:31;3.50;;;2.53;;
43527;SDS011;52359;42.658;23.320;2023-05-08T15:13:57;7.25;;;2.50;;
43527;SDS011;52359;42.658;23.320;2023-05-08T15:16:25;2.40;;;2.20;;
43527;SDS011;52359;42.658;23.320;2023-05-08T15:18:51;4.25;;;2.58;;
43527;SDS011;52359;42.658;23.320;2023-05-08T15:21:17;2.80;;;2.55;;